Evanston, Iowa
Current Conditions -  °F | °C
As of 12:35 AM on Wednesday 26 Nov 2014 (Local Time) from KEBS Reporting Station
Overcast Overcast  
Wind Chill: 18°   Ceiling: 3600
Heat Index: 28°   Visibility: 10mi
Dew Point: 19°   Wind: 12mph
Humidity: 69%   Direction: 140°SE
Pressure: 29.93"   Gusts: 17mph
Location:  42.4323°N, 94.0232°W
Report Text: KEBS 260635Z AUTO 14010G15KT 10SM SCT028 BKN036 OVC055 M02/M07 A2993 RMK AO2
Loading
Personal Weather Stations






























Interactive Weather Map New forecast layout! Learn more

10-Day Weather Forecast

Advertisements
Track Severe Weather on mobile